Time;durP1;ratioP1;P1;durP2;ratioP2;P2;SDS_P1;SDS_P2;PMS_P1;PMS_P2;Temp;Humidity;BMP_temperature;BMP_pressure;BME280_temperature;BME280_humidity;BME280_pressure;Samples;Min_cycle;Max_cycle;Signal;HPM_P1;HPM_P2
2020/12/11 00:02:03;;;;;;;9.40;7.20;;;;;;;;;;5033578;28;20179;-66
2020/12/11 00:04:29;;;;;;;8.33;6.57;;;;;;;;;;5033920;28;20647;-66
2020/12/11 00:06:58;;;;;;;7.83;6.73;;;;;;;;;;5033424;28;20198;-66
2020/12/11 00:09:24;;;;;;;7.53;6.60;;;;;;;;;;5033248;28;20226;-66
2020/12/11 00:11:50;;;;;;;7.97;6.20;;;;;;;;;;5033487;28;20179;-66
2020/12/11 00:14:15;;;;;;;8.07;6.77;;;;;;;;;;5033737;28;20238;-66
2020/12/11 00:16:40;;;;;;;7.10;5.87;;;;;;;;;;5033301;28;20221;-66
2020/12/11 00:19:06;;;;;;;6.80;5.80;;;;;;;;;;5033242;28;20178;-66
2020/12/11 00:21:41;;;;;;;7.13;5.70;;;;;;;;;;5033450;28;20229;-66
2020/12/11 00:24:08;;;;;;;6.13;5.23;;;;;;;;;;5033409;28;20170;-65
2020/12/11 00:26:33;;;;;;;7.33;6.37;;;;;;;;;;5033452;28;20233;-65
2020/12/11 00:28:59;;;;;;;7.37;6.00;;;;;;;;;;5033503;28;20171;-64
2020/12/11 00:31:24;;;;;;;6.33;5.30;;;;;;;;;;5033622;28;20297;-65
2020/12/11 00:33:50;;;;;;;7.47;6.63;;;;;;;;;;5033467;28;20312;-66
2020/12/11 00:36:16;;;;;;;7.70;5.93;;;;;;;;;;5033437;28;20558;-66
2020/12/11 00:38:41;;;;;;;7.03;5.73;;;;;;;;;;5033127;28;20254;-66
2020/12/11 00:41:06;;;;;;;7.27;6.43;;;;;;;;;;5033502;28;20221;-66
2020/12/11 00:43:31;;;;;;;7.73;6.10;;;;;;;;;;5033161;28;20171;-66
2020/12/11 00:45:57;;;;;;;6.03;5.43;;;;;;;;;;5033399;28;20182;-66
2020/12/11 00:48:22;;;;;;;8.17;6.50;;;;;;;;;;5033069;28;20181;-65
2020/12/11 00:50:47;;;;;;;8.23;6.07;;;;;;;;;;5033093;28;20178;-67
2020/12/11 00:53:13;;;;;;;7.13;5.90;;;;;;;;;;5033416;28;20182;-66
2020/12/11 00:55:39;;;;;;;7.07;5.87;;;;;;;;;;5033386;28;20262;-66
2020/12/11 00:58:04;;;;;;;6.33;5.10;;;;;;;;;;5033010;28;20711;-65
2020/12/11 01:00:29;;;;;;;6.80;5.37;;;;;;;;;;5032929;28;20194;-66
2020/12/11 01:02:55;;;;;;;6.93;5.80;;;;;;;;;;5032987;28;20171;-65
2020/12/11 01:05:20;;;;;;;6.33;5.67;;;;;;;;;;5033084;28;20202;-66
2020/12/11 01:07:45;;;;;;;6.37;5.60;;;;;;;;;;5032775;28;20257;-65
2020/12/11 01:10:10;;;;;;;6.83;5.80;;;;;;;;;;5032880;28;20175;-67
2020/12/11 01:12:36;;;;;;;7.50;6.00;;;;;;;;;;5033136;28;20198;-67
2020/12/11 01:15:02;;;;;;;6.43;5.73;;;;;;;;;;5033497;28;20194;-67
2020/12/11 01:17:27;;;;;;;7.13;5.40;;;;;;;;;;5036816;28;20175;-66
2020/12/11 01:19:52;;;;;;;6.73;5.80;;;;;;;;;;5036547;28;20181;-66
2020/12/11 01:22:18;;;;;;;6.77;5.60;;;;;;;;;;5036799;28;20738;-67
2020/12/11 01:24:43;;;;;;;7.10;5.87;;;;;;;;;;5036708;28;20709;-65
2020/12/11 01:27:08;;;;;;;5.83;4.83;;;;;;;;;;5036285;28;20216;-66
2020/12/11 01:29:34;;;;;;;6.63;5.63;;;;;;;;;;5036604;28;20269;-67
2020/12/11 01:31:59;;;;;;;6.40;5.57;;;;;;;;;;5036511;28;20526;-67
2020/12/11 01:34:26;;;;;;;6.57;5.60;;;;;;;;;;5036140;28;20195;-66
2020/12/11 01:36:51;;;;;;;6.77;5.37;;;;;;;;;;5036370;28;20581;-66
2020/12/11 01:39:16;;;;;;;6.27;5.13;;;;;;;;;;5036218;28;20229;-66
2020/12/11 01:41:42;;;;;;;6.13;5.43;;;;;;;;;;5036058;28;20182;-66
2020/12/11 01:44:09;;;;;;;7.13;5.07;;;;;;;;;;5036025;28;20171;-66
2020/12/11 01:46:39;;;;;;;7.20;5.93;;;;;;;;;;5035929;28;20175;-66
2020/12/11 01:49:05;;;;;;;5.17;4.53;;;;;;;;;;5036391;28;20204;-66
2020/12/11 01:51:33;;;;;;;6.60;5.67;;;;;;;;;;5036282;28;20182;-66
2020/12/11 01:53:58;;;;;;;5.47;4.87;;;;;;;;;;5035988;28;20234;-65
2020/12/11 01:56:26;;;;;;;7.13;5.23;;;;;;;;;;5035832;28;20175;-66
2020/12/11 01:58:59;;;;;;;7.00;5.63;;;;;;;;;;5035856;28;20181;-66
2020/12/11 02:01:24;;;;;;;6.17;4.90;;;;;;;;;;5036264;28;20167;-65
2020/12/11 02:03:50;;;;;;;6.77;5.47;;;;;;;;;;5035519;28;20697;-66
2020/12/11 02:06:15;;;;;;;6.03;5.00;;;;;;;;;;5035505;28;20194;-66
2020/12/11 02:08:40;;;;;;;6.03;5.23;;;;;;;;;;5035311;28;20222;-66
2020/12/11 02:11:22;;;;;;;6.67;5.80;;;;;;;;;;5035478;28;20612;-66
2020/12/11 02:13:47;;;;;;;5.80;5.20;;;;;;;;;;5035449;28;20198;-66
2020/12/11 02:16:12;;;;;;;6.27;5.30;;;;;;;;;;5035570;28;20189;-66
2020/12/11 02:18:40;;;;;;;7.03;5.57;;;;;;;;;;5035378;28;20228;-66
2020/12/11 02:21:07;;;;;;;8.17;5.80;;;;;;;;;;5035399;28;20550;-66
2020/12/11 02:23:32;;;;;;;6.07;4.90;;;;;;;;;;5035560;28;20182;-67
2020/12/11 02:25:58;;;;;;;5.83;5.23;;;;;;;;;;5035145;28;20643;-66
2020/12/11 02:28:29;;;;;;;6.63;5.50;;;;;;;;;;5034044;28;20258;-66
2020/12/11 02:30:56;;;;;;;5.67;5.07;;;;;;;;;;5035072;28;20253;-66
2020/12/11 02:33:22;;;;;;;7.20;5.10;;;;;;;;;;5035607;28;20183;-65
2020/12/11 02:35:47;;;;;;;6.07;5.13;;;;;;;;;;5035049;28;20182;-66
2020/12/11 02:38:14;;;;;;;6.00;5.17;;;;;;;;;;5035261;28;20635;-66
2020/12/11 02:40:48;;;;;;;5.33;4.77;;;;;;;;;;5035294;28;20175;-64
2020/12/11 02:43:14;;;;;;;5.73;4.90;;;;;;;;;;5034975;28;20163;-65
2020/12/11 02:45:40;;;;;;;5.53;4.67;;;;;;;;;;5034871;28;20177;-66
2020/12/11 02:48:05;;;;;;;6.60;5.27;;;;;;;;;;5035270;28;20244;-65
2020/12/11 02:50:31;;;;;;;6.57;5.33;;;;;;;;;;5034737;28;20170;-66
2020/12/11 02:52:56;;;;;;;6.80;5.20;;;;;;;;;;5034821;28;20257;-67
2020/12/11 02:55:21;;;;;;;5.67;4.83;;;;;;;;;;5034600;28;20202;-66
2020/12/11 02:57:46;;;;;;;6.40;4.80;;;;;;;;;;5034628;28;20693;-67
2020/12/11 03:00:12;;;;;;;5.93;5.10;;;;;;;;;;5034891;28;20186;-67
2020/12/11 03:02:37;;;;;;;5.67;4.90;;;;;;;;;;5034860;28;20534;-66
2020/12/11 03:05:03;;;;;;;6.60;5.70;;;;;;;;;;5034417;28;20602;-66
2020/12/11 03:07:28;;;;;;;6.37;5.67;;;;;;;;;;5034219;28;20227;-66
2020/12/11 03:09:53;;;;;;;7.27;5.57;;;;;;;;;;5034527;28;20620;-67
2020/12/11 03:12:18;;;;;;;5.87;5.23;;;;;;;;;;5034240;28;20178;-66
2020/12/11 03:14:44;;;;;;;5.17;4.60;;;;;;;;;;5034181;28;20191;-66
2020/12/11 03:17:09;;;;;;;5.40;4.47;;;;;;;;;;5034570;28;20178;-67
2020/12/11 03:19:34;;;;;;;5.80;5.10;;;;;;;;;;5034089;28;20179;-67
2020/12/11 03:21:59;;;;;;;6.07;5.00;;;;;;;;;;5034194;28;20281;-68
2020/12/11 03:24:25;;;;;;;6.17;5.00;;;;;;;;;;5034071;28;20229;-68
2020/12/11 03:26:50;;;;;;;6.43;5.00;;;;;;;;;;5034068;28;20186;-68
2020/12/11 03:29:15;;;;;;;5.93;4.93;;;;;;;;;;5034107;28;20202;-66
2020/12/11 03:31:40;;;;;;;6.63;5.70;;;;;;;;;;5034102;28;20183;-67
2020/12/11 03:34:06;;;;;;;5.60;5.10;;;;;;;;;;5034211;28;20256;-65
2020/12/11 03:36:31;;;;;;;6.77;5.83;;;;;;;;;;5033996;28;20639;-66
2020/12/11 03:38:56;;;;;;;5.93;5.20;;;;;;;;;;5033600;28;20175;-66
2020/12/11 03:41:22;;;;;;;7.90;6.40;;;;;;;;;;5034233;28;20183;-68
2020/12/11 03:43:47;;;;;;;6.77;5.40;;;;;;;;;;5033861;28;20198;-67
2020/12/11 03:46:20;;;;;;;6.63;5.33;;;;;;;;;;5033771;28;20167;-66
2020/12/11 03:48:46;;;;;;;5.90;5.23;;;;;;;;;;5033931;28;20179;-67
2020/12/11 03:51:18;;;;;;;5.60;4.93;;;;;;;;;;5033943;28;20181;-67
2020/12/11 03:53:44;;;;;;;5.37;4.70;;;;;;;;;;5033596;28;20230;-67
2020/12/11 03:56:12;;;;;;;5.37;4.87;;;;;;;;;;5034023;28;20248;-68
2020/12/11 03:58:38;;;;;;;5.77;5.10;;;;;;;;;;5033634;28;20307;-67
2020/12/11 04:01:03;;;;;;;5.97;5.17;;;;;;;;;;5033793;28;20253;-66
2020/12/11 04:03:28;;;;;;;5.17;4.47;;;;;;;;;;5033644;28;20181;-67
2020/12/11 04:05:54;;;;;;;6.47;5.40;;;;;;;;;;5033535;28;20175;-68
2020/12/11 04:08:19;;;;;;;6.13;5.30;;;;;;;;;;5033330;28;20309;-68
2020/12/11 04:10:44;;;;;;;6.57;5.73;;;;;;;;;;5033502;28;20174;-68
2020/12/11 04:13:09;;;;;;;5.10;4.60;;;;;;;;;;5033446;28;20182;-67
2020/12/11 04:15:35;;;;;;;6.40;5.03;;;;;;;;;;5033566;28;20171;-67
2020/12/11 04:18:00;;;;;;;4.87;4.37;;;;;;;;;;5033495;28;20539;-67
2020/12/11 04:20:25;;;;;;;5.63;5.13;;;;;;;;;;5033585;28;20171;-67
2020/12/11 04:22:50;;;;;;;5.60;4.83;;;;;;;;;;5033341;28;20202;-68
2020/12/11 04:25:16;;;;;;;6.93;5.23;;;;;;;;;;5033310;28;20167;-67
2020/12/11 04:27:41;;;;;;;5.63;5.00;;;;;;;;;;5033656;28;20183;-67
2020/12/11 04:30:06;;;;;;;5.70;5.10;;;;;;;;;;5033408;28;20185;-68
2020/12/11 04:32:32;;;;;;;6.53;5.65;;;;;;;;;;5033551;28;20632;-67
2020/12/11 04:34:57;;;;;;;5.00;4.33;;;;;;;;;;5031848;28;20208;-67
2020/12/11 04:37:22;;;;;;;7.53;5.57;;;;;;;;;;5033149;28;20193;-67
2020/12/11 04:39:47;;;;;;;6.27;4.87;;;;;;;;;;5033243;28;20218;-66
2020/12/11 04:42:14;;;;;;;6.33;5.23;;;;;;;;;;5033188;28;20643;-66
2020/12/11 04:44:39;;;;;;;6.87;5.33;;;;;;;;;;5033403;28;20174;-66
2020/12/11 04:47:06;;;;;;;7.03;5.43;;;;;;;;;;5033416;28;20632;-67
2020/12/11 04:49:34;;;;;;;6.27;5.30;;;;;;;;;;5033238;28;20175;-67
2020/12/11 04:52:04;;;;;;;6.27;5.30;;;;;;;;;;5036756;28;20206;-67
2020/12/11 04:54:35;;;;;;;6.90;5.47;;;;;;;;;;5037374;28;20199;-66
2020/12/11 04:57:02;;;;;;;9.20;7.00;;;;;;;;;;5037098;28;20163;-66
2020/12/11 04:59:27;;;;;;;9.53;7.47;;;;;;;;;;5037052;28;20175;-67
2020/12/11 05:01:58;;;;;;;6.28;5.47;;;;;;;;;;5036985;28;20544;-66
2020/12/11 05:04:25;;;;;;;7.03;5.77;;;;;;;;;;5036832;28;20163;-67
2020/12/11 05:06:50;;;;;;;7.63;6.10;;;;;;;;;;5036687;28;20201;-69
2020/12/11 05:09:18;;;;;;;6.13;4.60;;;;;;;;;;5036644;28;20218;-66
2020/12/11 05:11:45;;;;;;;5.43;4.70;;;;;;;;;;5036616;28;20181;-66
2020/12/11 05:14:23;;;;;;;4.80;4.30;;;;;;;;;;5036513;28;20199;-66
2020/12/11 05:17:01;;;;;;;8.52;6.63;;;;;;;;;;5036606;28;20178;-67
2020/12/11 05:19:27;;;;;;;7.47;5.88;;;;;;;;;;5036508;28;20296;-66
2020/12/11 05:21:53;;;;;;;7.20;5.10;;;;;;;;;;5036424;28;20177;-68
2020/12/11 05:24:18;;;;;;;6.03;5.27;;;;;;;;;;5036462;28;20171;-67
2020/12/11 05:26:44;;;;;;;5.60;4.90;;;;;;;;;;5036405;28;20210;-67
2020/12/11 05:29:09;;;;;;;10.53;7.60;;;;;;;;;;5036589;28;20171;-67
2020/12/11 05:31:34;;;;;;;6.35;4.90;;;;;;;;;;5036241;28;20707;-67
2020/12/11 05:34:13;;;;;;;7.80;5.60;;;;;;;;;;5036230;28;20213;-66
2020/12/11 05:36:50;;;;;;;5.67;4.77;;;;;;;;;;5036675;28;20241;-67
2020/12/11 05:39:29;;;;;;;7.33;5.33;;;;;;;;;;5036382;28;20201;-66
2020/12/11 05:41:54;;;;;;;7.67;6.20;;;;;;;;;;5036106;28;20166;-65
2020/12/11 05:44:37;;;;;;;8.80;6.60;;;;;;;;;;5036305;28;20177;-66
2020/12/11 05:47:26;;;;;;;9.13;5.43;;;;;;;;;;5036161;28;20242;-65
2020/12/11 05:49:51;;;;;;;11.07;5.23;;;;;;;;;;5036296;28;20163;-66
2020/12/11 05:52:18;;;;;;;7.23;5.33;;;;;;;;;;5036303;28;20522;-65
2020/12/11 05:54:46;;;;;;;7.20;5.17;;;;;;;;;;5035707;28;20190;-66
2020/12/11 05:57:14;;;;;;;7.70;5.40;;;;;;;;;;5035986;28;20635;-66
2020/12/11 05:59:40;;;;;;;6.80;5.43;;;;;;;;;;5035717;28;20171;-65
2020/12/11 06:02:06;;;;;;;10.07;6.23;;;;;;;;;;5035978;28;20293;-66
2020/12/11 06:04:32;;;;;;;9.07;5.67;;;;;;;;;;5035707;28;20583;-66
2020/12/11 06:06:58;;;;;;;7.53;5.10;;;;;;;;;;5035807;28;20548;-66
2020/12/11 06:09:31;;;;;;;7.37;5.77;;;;;;;;;;5035416;28;20734;-67
2020/12/11 06:11:58;;;;;;;9.97;6.17;;;;;;;;;;5035465;28;20532;-65
2020/12/11 06:14:49;;;;;;;7.67;5.17;;;;;;;;;;5035538;28;20579;-63
2020/12/11 06:17:17;;;;;;;7.80;5.20;;;;;;;;;;5024913;28;20194;-65
2020/12/11 06:19:44;;;;;;;16.20;6.37;;;;;;;;;;5035488;28;20662;-63
2020/12/11 06:22:10;;;;;;;5.87;5.00;;;;;;;;;;5035179;28;20179;-64
2020/12/11 06:24:35;;;;;;;8.77;6.67;;;;;;;;;;5035072;28;20233;-64
2020/12/11 06:27:03;;;;;;;7.83;5.43;;;;;;;;;;5035250;28;20179;-63
2020/12/11 06:29:31;;;;;;;7.50;5.77;;;;;;;;;;5035225;28;20697;-64
2020/12/11 06:31:56;;;;;;;8.37;5.27;;;;;;;;;;5035195;28;20174;-65
2020/12/11 06:34:24;;;;;;;18.10;9.60;;;;;;;;;;5035067;28;20194;-63
2020/12/11 06:36:50;;;;;;;10.83;7.83;;;;;;;;;;5035414;28;20266;-64
2020/12/11 06:39:42;;;;;;;8.57;5.57;;;;;;;;;;5035102;28;20190;-66
2020/12/11 06:42:35;;;;;;;6.53;4.90;;;;;;;;;;5035170;28;20180;-67
2020/12/11 06:45:21;;;;;;;8.00;5.40;;;;;;;;;;5035096;28;20170;-67
2020/12/11 06:47:58;;;;;;;12.60;9.43;;;;;;;;;;5035239;28;20175;-66
2020/12/11 06:50:26;;;;;;;12.77;8.53;;;;;;;;;;5035076;28;20250;-67
2020/12/11 06:52:52;;;;;;;11.93;6.87;;;;;;;;;;5034791;28;20262;-67
2020/12/11 06:55:17;;;;;;;8.77;5.27;;;;;;;;;;5035101;28;20302;-66
2020/12/11 06:57:44;;;;;;;12.43;7.70;;;;;;;;;;5034725;28;20270;-65
2020/12/11 07:00:30;;;;;;;10.27;6.90;;;;;;;;;;5034681;28;20229;-66
2020/12/11 07:03:16;;;;;;;12.77;8.90;;;;;;;;;;5034968;28;20317;-65
2020/12/11 07:05:41;;;;;;;10.43;6.47;;;;;;;;;;5034516;28;20545;-66
2020/12/11 07:08:14;;;;;;;11.00;7.17;;;;;;;;;;5034326;28;20317;-66
2020/12/11 07:10:40;;;;;;;8.23;5.73;;;;;;;;;;5034368;28;20190;-66
2020/12/11 07:13:07;;;;;;;8.00;6.60;;;;;;;;;;5033772;28;20179;-66
2020/12/11 07:15:33;;;;;;;8.73;5.53;;;;;;;;;;5034487;28;20199;-66
2020/12/11 07:17:58;;;;;;;7.03;5.80;;;;;;;;;;5033127;28;20190;-67
2020/12/11 07:20:24;;;;;;;10.33;5.47;;;;;;;;;;5034558;28;20182;-66
2020/12/11 07:22:50;;;;;;;9.57;7.43;;;;;;;;;;5034505;28;20594;-65
2020/12/11 07:25:16;;;;;;;7.20;5.60;;;;;;;;;;5034519;28;20179;-66
2020/12/11 07:27:41;;;;;;;8.23;6.10;;;;;;;;;;5034273;28;20178;-64
2020/12/11 07:30:06;;;;;;;8.37;5.40;;;;;;;;;;5034180;28;20262;-65
2020/12/11 07:32:32;;;;;;;8.27;5.97;;;;;;;;;;5034235;28;20186;-67
2020/12/11 07:34:57;;;;;;;7.17;4.90;;;;;;;;;;5034001;28;20691;-66
2020/12/11 07:37:23;;;;;;;7.07;5.43;;;;;;;;;;5033971;28;20179;-67
2020/12/11 07:39:48;;;;;;;6.20;5.20;;;;;;;;;;5033966;28;20658;-66
2020/12/11 07:42:20;;;;;;;9.10;6.53;;;;;;;;;;5034088;28;20209;-64
2020/12/11 07:44:46;;;;;;;7.03;5.50;;;;;;;;;;5034149;28;20163;-64
2020/12/11 07:47:13;;;;;;;7.27;6.03;;;;;;;;;;5033818;28;20197;-64
2020/12/11 07:49:41;;;;;;;7.33;5.73;;;;;;;;;;5033739;28;20182;-64
2020/12/11 07:52:08;;;;;;;7.07;5.67;;;;;;;;;;5033784;28;20179;-64
2020/12/11 07:54:37;;;;;;;8.43;5.20;;;;;;;;;;5034034;28;20214;-65
2020/12/11 07:57:14;;;;;;;7.70;4.97;;;;;;;;;;5033666;28;20186;-64
2020/12/11 07:59:39;;;;;;;10.00;6.60;;;;;;;;;;5033910;28;20171;-64
2020/12/11 08:02:05;;;;;;;8.97;6.80;;;;;;;;;;5033948;28;20706;-64
2020/12/11 08:04:35;;;;;;;7.37;5.10;;;;;;;;;;5033607;28;20220;-63
2020/12/11 08:07:00;;;;;;;6.37;5.00;;;;;;;;;;5033767;28;20297;-63
2020/12/11 08:09:33;;;;;;;8.40;5.03;;;;;;;;;;5012502;28;20665;-64
2020/12/11 08:12:22;;;;;;;6.30;4.73;;;;;;;;;;5012765;28;20183;-64
2020/12/11 08:14:47;;;;;;;6.60;4.77;;;;;;;;;;5013882;28;20191;-64
2020/12/11 08:17:15;;;;;;;9.43;5.60;;;;;;;;;;5013758;28;20245;-65
2020/12/11 08:19:42;;;;;;;9.53;5.20;;;;;;;;;;5013763;28;20189;-64
2020/12/11 08:22:15;;;;;;;7.73;4.87;;;;;;;;;;5013509;28;20187;-62
2020/12/11 08:24:42;;;;;;;9.27;5.47;;;;;;;;;;5015070;28;20179;-62
2020/12/11 08:27:24;;;;;;;6.33;4.57;;;;;;;;;;5017928;28;20175;-63
2020/12/11 08:30:03;;;;;;;6.93;4.73;;;;;;;;;;5017805;28;20178;-63
2020/12/11 08:32:28;;;;;;;7.60;4.23;;;;;;;;;;5017917;28;20179;-64
2020/12/11 08:34:53;;;;;;;5.47;4.30;;;;;;;;;;5017504;28;20210;-63
2020/12/11 08:37:18;;;;;;;5.47;4.03;;;;;;;;;;5017553;28;20187;-64
2020/12/11 08:39:44;;;;;;;6.90;4.60;;;;;;;;;;5017827;28;20237;-64
2020/12/11 08:42:19;;;;;;;6.53;3.97;;;;;;;;;;5017539;28;20206;-63
2020/12/11 08:50:33;;;;;;;7.22;4.20;;;;;;;;;;5017305;28;20541;-64
2020/12/11 08:52:50;;;;;;;6.17;4.57;;;;;;;;;;5017057;28;20242;-63
2020/12/11 08:55:16;;;;;;;8.65;4.18;;;;;;;;;;5017537;28;20199;-64
2020/12/11 08:57:41;;;;;;;5.47;4.60;;;;;;;;;;5017545;28;20230;-63
2020/12/11 09:00:06;;;;;;;6.63;4.57;;;;;;;;;;5017064;28;20183;-63
2020/12/11 09:02:32;;;;;;;7.57;5.22;;;;;;;;;;5017271;28;20183;-65
2020/12/11 09:04:58;;;;;;;7.10;4.10;;;;;;;;;;5017208;28;20202;-66
2020/12/11 09:07:26;;;;;;;5.77;4.13;;;;;;;;;;5019686;28;20264;-65
2020/12/11 09:09:51;;;;;;;5.20;4.20;;;;;;;;;;5037035;28;20171;-64
2020/12/11 09:12:17;;;;;;;5.55;3.90;;;;;;;;;;5035443;28;20183;-66
2020/12/11 09:14:43;;;;;;;5.70;4.07;;;;;;;;;;5036795;28;20224;-64
2020/12/11 09:17:09;;;;;;;4.17;3.53;;;;;;;;;;5036602;28;20183;-65
2020/12/11 09:19:34;;;;;;;7.20;5.03;;;;;;;;;;5036620;28;20186;-64
2020/12/11 09:22:01;;;;;;;4.97;4.17;;;;;;;;;;5036438;28;20179;-65
2020/12/11 09:24:30;;;;;;;6.47;4.30;;;;;;;;;;5036363;28;20608;-65
2020/12/11 09:26:56;;;;;;;5.67;4.00;;;;;;;;;;5036577;28;20194;-64
2020/12/11 09:31:54;;;;;;;3.80;3.03;;;;;;;;;;5036627;28;20240;-65
2020/12/11 09:34:19;;;;;;;6.13;4.03;;;;;;;;;;5036413;28;20214;-66
2020/12/11 09:36:44;;;;;;;4.55;3.42;;;;;;;;;;5035526;28;20693;-64
2020/12/11 09:39:11;;;;;;;5.10;3.75;;;;;;;;;;5036211;28;20185;-64
2020/12/11 09:41:38;;;;;;;4.68;3.63;;;;;;;;;;5036070;28;20175;-65
2020/12/11 09:44:41;;;;;;;4.00;3.50;;;;;;;;;;5036445;28;20257;-65
2020/12/11 09:49:55;;;;;;;4.35;3.53;;;;;;;;;;5036260;28;20206;-63
2020/12/11 09:54:50;;;;;;;3.95;3.30;;;;;;;;;;5035976;28;20662;-64
2020/12/11 09:57:15;;;;;;;4.47;3.45;;;;;;;;;;5035875;28;20267;-64
2020/12/11 09:59:55;;;;;;;4.20;3.70;;;;;;;;;;5035749;28;20240;-63
2020/12/11 10:04:55;;;;;;;3.90;3.43;;;;;;;;;;5036090;28;20194;-64
2020/12/11 10:07:20;;;;;;;4.97;3.70;;;;;;;;;;5035345;28;20557;-65
2020/12/11 10:09:45;;;;;;;4.65;3.70;;;;;;;;;;5035691;28;20208;-63
2020/12/11 10:12:11;;;;;;;4.63;3.60;;;;;;;;;;5035589;28;20544;-64
2020/12/11 10:14:40;;;;;;;5.73;3.87;;;;;;;;;;5034108;28;20217;-63
2020/12/11 10:17:06;;;;;;;4.15;3.30;;;;;;;;;;5035693;28;20194;-63
2020/12/11 10:19:31;;;;;;;4.03;3.60;;;;;;;;;;5035689;28;20174;-64
2020/12/11 10:21:56;;;;;;;5.13;4.00;;;;;;;;;;5035604;28;20265;-64
2020/12/11 10:24:23;;;;;;;4.32;3.70;;;;;;;;;;5035563;28;20171;-64
2020/12/11 10:26:49;;;;;;;4.90;3.67;;;;;;;;;;5035593;28;20217;-64
2020/12/11 10:29:14;;;;;;;4.20;3.63;;;;;;;;;;5035416;28;20198;-66
2020/12/11 10:31:43;;;;;;;3.43;3.03;;;;;;;;;;5035472;28;20183;-66
2020/12/11 10:34:10;;;;;;;5.05;3.75;;;;;;;;;;5035362;28;20214;-64
2020/12/11 10:36:35;;;;;;;4.90;3.92;;;;;;;;;;5035102;28;20224;-65
2020/12/11 10:39:00;;;;;;;4.90;3.92;;;;;;;;;;5035419;28;20175;-66
2020/12/11 10:41:26;;;;;;;6.47;4.30;;;;;;;;;;5035246;28;20186;-65
2020/12/11 10:43:52;;;;;;;6.37;3.73;;;;;;;;;;5034932;28;20210;-64
2020/12/11 10:46:18;;;;;;;5.85;4.03;;;;;;;;;;5034980;28;20183;-66
2020/12/11 10:48:43;;;;;;;4.95;4.00;;;;;;;;;;5033947;28;20525;-65
2020/12/11 10:51:13;;;;;;;5.23;4.20;;;;;;;;;;5035029;28;20262;-64
2020/12/11 10:53:38;;;;;;;6.53;4.57;;;;;;;;;;5034667;28;20206;-67
2020/12/11 10:56:05;;;;;;;6.85;4.07;;;;;;;;;;5035087;28;20209;-64
2020/12/11 10:58:30;;;;;;;10.57;5.13;;;;;;;;;;5034768;28;20177;-65
2020/12/11 11:00:56;;;;;;;9.67;5.90;;;;;;;;;;5034681;28;20174;-64
2020/12/11 11:03:21;;;;;;;10.80;5.23;;;;;;;;;;5034665;28;20211;-65
2020/12/11 11:05:46;;;;;;;10.98;6.60;;;;;;;;;;5034396;28;20171;-64
2020/12/11 11:08:11;;;;;;;8.05;5.18;;;;;;;;;;5034501;28;20770;-63
2020/12/11 11:10:43;;;;;;;8.77;5.45;;;;;;;;;;5034524;28;20175;-64
2020/12/11 11:15:46;;;;;;;9.10;6.00;;;;;;;;;;5034270;28;20241;-63
2020/12/11 11:26:17;;;;;;;10.80;6.33;;;;;;;;;;5034699;28;20297;-65
2020/12/11 11:28:42;;;;;;;10.77;7.10;;;;;;;;;;5034521;28;20167;-64
2020/12/11 11:31:11;;;;;;;13.68;7.45;;;;;;;;;;5034333;28;20308;-65
2020/12/11 11:33:37;;;;;;;11.17;7.10;;;;;;;;;;5033912;28;20171;-65
2020/12/11 11:36:03;;;;;;;11.87;6.77;;;;;;;;;;5034147;28;20211;-63
2020/12/11 11:38:28;;;;;;;24.80;7.43;;;;;;;;;;5033917;28;20262;-65
2020/12/11 11:40:54;;;;;;;16.43;7.23;;;;;;;;;;5033788;28;20174;-64
2020/12/11 11:43:29;;;;;;;16.20;7.00;;;;;;;;;;5033891;28;20261;-63
2020/12/11 11:45:54;;;;;;;13.60;6.83;;;;;;;;;;5034015;28;20163;-65
2020/12/11 11:48:20;;;;;;;12.37;6.67;;;;;;;;;;5032635;28;20194;-63
2020/12/11 11:50:54;;;;;;;19.07;7.33;;;;;;;;;;5034008;28;20178;-65
2020/12/11 11:53:21;;;;;;;14.07;7.30;;;;;;;;;;5033865;28;20174;-64
2020/12/11 11:55:47;;;;;;;12.77;6.80;;;;;;;;;;5033709;28;20209;-64
2020/12/11 11:58:13;;;;;;;10.60;6.57;;;;;;;;;;5034115;28;20182;-65
2020/12/11 12:00:38;;;;;;;14.13;7.83;;;;;;;;;;5015640;28;20269;-64
2020/12/11 12:03:04;;;;;;;12.47;7.50;;;;;;;;;;5033623;28;20185;-64
2020/12/11 12:05:29;;;;;;;18.63;7.43;;;;;;;;;;5033852;28;20174;-64
2020/12/11 12:07:54;;;;;;;13.40;7.20;;;;;;;;;;5033280;28;20239;-64
2020/12/11 12:10:20;;;;;;;11.87;6.90;;;;;;;;;;5033847;28;20225;-65
2020/12/11 12:12:45;;;;;;;12.53;7.37;;;;;;;;;;5033607;28;20186;-64
2020/12/11 12:15:15;;;;;;;11.70;7.40;;;;;;;;;;5033514;28;20681;-64
2020/12/11 12:18:03;;;;;;;12.50;7.23;;;;;;;;;;5033635;28;20182;-65
2020/12/11 12:28:30;;;;;;;12.00;7.70;;;;;;;;;;5033809;28;20170;-66
2020/12/11 12:30:55;;;;;;;12.63;7.40;;;;;;;;;;5033690;28;20166;-65
2020/12/11 12:38:48;;;;;;;14.67;8.40;;;;;;;;;;5033688;28;20221;-64
2020/12/11 12:43:58;;;;;;;12.00;7.90;;;;;;;;;;5033253;28;20162;-64
2020/12/11 12:46:24;;;;;;;14.57;8.33;;;;;;;;;;5033108;28;20279;-65
2020/12/11 12:48:50;;;;;;;14.00;7.93;;;;;;;;;;5033206;28;20249;-65
2020/12/11 12:51:16;;;;;;;10.90;7.63;;;;;;;;;;5033225;28;20297;-65
2020/12/11 12:53:41;;;;;;;11.87;7.77;;;;;;;;;;5033197;28;20544;-65
2020/12/11 12:58:59;;;;;;;10.87;7.13;;;;;;;;;;5033112;28;20189;-65
2020/12/11 13:01:54;;;;;;;11.37;7.10;;;;;;;;;;5033279;28;20162;-64
2020/12/11 13:04:38;;;;;;;12.90;7.33;;;;;;;;;;5033414;28;20292;-65
2020/12/11 13:07:05;;;;;;;10.57;6.90;;;;;;;;;;5032751;28;20208;-64
2020/12/11 13:09:31;;;;;;;12.53;8.07;;;;;;;;;;5033285;28;20187;-64
2020/12/11 13:11:56;;;;;;;12.13;7.63;;;;;;;;;;5034956;28;20182;-64
2020/12/11 13:14:22;;;;;;;10.00;7.00;;;;;;;;;;5036559;28;20210;-65
2020/12/11 13:16:47;;;;;;;11.47;7.37;;;;;;;;;;5036606;28;20265;-64
2020/12/11 13:19:15;;;;;;;9.13;6.80;;;;;;;;;;5037296;28;20183;-64
2020/12/11 13:21:56;;;;;;;12.83;7.10;;;;;;;;;;5036696;28;20182;-64
2020/12/11 13:27:09;;;;;;;10.87;7.20;;;;;;;;;;5036450;28;20689;-64
2020/12/11 13:29:34;;;;;;;10.60;6.63;;;;;;;;;;5036425;28;20582;-65
2020/12/11 13:32:00;;;;;;;10.13;6.70;;;;;;;;;;5036378;28;20229;-64
2020/12/11 13:34:26;;;;;;;10.20;7.30;;;;;;;;;;5036522;28;20574;-64
2020/12/11 13:36:51;;;;;;;10.13;6.63;;;;;;;;;;5036640;28;20269;-63
2020/12/11 13:39:16;;;;;;;9.57;6.27;;;;;;;;;;5036368;28;20175;-64
2020/12/11 13:41:41;;;;;;;10.83;6.70;;;;;;;;;;5036240;28;20191;-64
2020/12/11 13:44:07;;;;;;;8.93;6.47;;;;;;;;;;5036125;28;20179;-63
2020/12/11 13:46:32;;;;;;;7.73;6.37;;;;;;;;;;5036100;28;20175;-64
2020/12/11 13:48:57;;;;;;;9.27;6.53;;;;;;;;;;5035962;28;20574;-64
2020/12/11 13:51:23;;;;;;;9.33;6.37;;;;;;;;;;5036013;28;20175;-65
2020/12/11 13:53:48;;;;;;;8.70;6.80;;;;;;;;;;5036134;28;20181;-64
2020/12/11 13:56:15;;;;;;;8.83;6.43;;;;;;;;;;5035904;28;20640;-64
2020/12/11 13:58:40;;;;;;;9.03;6.50;;;;;;;;;;5034696;28;20185;-64
2020/12/11 14:01:09;;;;;;;9.07;6.83;;;;;;;;;;5036059;28;20183;-66
2020/12/11 14:03:34;;;;;;;11.70;6.50;;;;;;;;;;5035728;28;20624;-64
2020/12/11 14:05:59;;;;;;;10.83;6.33;;;;;;;;;;5035664;28;20258;-63
2020/12/11 14:08:25;;;;;;;10.97;6.60;;;;;;;;;;5035427;28;20619;-62
2020/12/11 14:10:50;;;;;;;11.30;6.50;;;;;;;;;;5035917;28;20175;-64
2020/12/11 14:13:15;;;;;;;10.87;6.33;;;;;;;;;;5035660;28;20175;-63
2020/12/11 14:15:40;;;;;;;12.83;7.73;;;;;;;;;;5035504;28;20285;-62
2020/12/11 14:18:16;;;;;;;11.97;6.50;;;;;;;;;;5035611;28;20194;-62
2020/12/11 14:20:52;;;;;;;8.50;6.20;;;;;;;;;;5035554;28;20170;-63
2020/12/11 14:23:18;;;;;;;10.17;6.40;;;;;;;;;;5035717;28;20167;-63
2020/12/11 14:25:44;;;;;;;7.00;6.10;;;;;;;;;;5035360;28;20171;-63
2020/12/11 14:28:10;;;;;;;9.37;6.63;;;;;;;;;;5035571;28;20201;-63
2020/12/11 14:30:36;;;;;;;7.37;5.90;;;;;;;;;;5035395;28;20559;-64
2020/12/11 14:33:01;;;;;;;18.77;5.97;;;;;;;;;;5035216;28;20266;-64
2020/12/11 14:35:29;;;;;;;18.17;6.80;;;;;;;;;;5035343;28;20210;-63
2020/12/11 14:38:02;;;;;;;9.03;5.20;;;;;;;;;;5035697;28;20182;-64
2020/12/11 14:40:27;;;;;;;10.17;5.80;;;;;;;;;;5035617;28;20173;-64
2020/12/11 14:42:55;;;;;;;12.13;6.00;;;;;;;;;;5035484;28;20265;-63
2020/12/11 14:45:20;;;;;;;11.17;6.30;;;;;;;;;;5035378;28;20186;-65
2020/12/11 14:47:45;;;;;;;10.07;6.10;;;;;;;;;;5034836;28;20182;-64
2020/12/11 14:50:11;;;;;;;9.63;5.97;;;;;;;;;;5034922;28;20218;-65
2020/12/11 14:52:36;;;;;;;13.23;6.23;;;;;;;;;;5034875;28;20202;-66
2020/12/11 14:55:02;;;;;;;8.20;5.27;;;;;;;;;;5034847;28;20202;-66
2020/12/11 14:57:27;;;;;;;12.23;5.60;;;;;;;;;;5034819;28;20175;-65
2020/12/11 14:59:53;;;;;;;11.20;6.53;;;;;;;;;;5034776;28;20178;-65
2020/12/11 15:02:19;;;;;;;10.37;7.03;;;;;;;;;;5034710;28;20345;-66
2020/12/11 15:04:45;;;;;;;16.20;6.80;;;;;;;;;;5034958;28;20178;-65
2020/12/11 15:07:10;;;;;;;11.17;7.13;;;;;;;;;;5034352;28;20252;-65
2020/12/11 15:09:35;;;;;;;9.30;6.90;;;;;;;;;;5035059;28;20170;-67
2020/12/11 15:12:00;;;;;;;10.93;7.00;;;;;;;;;;5034654;28;20576;-66
2020/12/11 15:14:26;;;;;;;11.87;6.93;;;;;;;;;;5034466;28;20199;-66
2020/12/11 15:16:51;;;;;;;10.17;6.50;;;;;;;;;;5034929;28;20285;-65
2020/12/11 15:19:17;;;;;;;14.03;7.13;;;;;;;;;;5034739;28;20214;-66
2020/12/11 15:21:42;;;;;;;10.27;7.30;;;;;;;;;;5034356;28;20218;-66
2020/12/11 15:24:12;;;;;;;9.17;6.30;;;;;;;;;;5034316;28;20206;-67
2020/12/11 15:26:37;;;;;;;8.70;6.77;;;;;;;;;;5034502;28;20167;-66
2020/12/11 15:29:02;;;;;;;11.17;6.53;;;;;;;;;;5034230;28;20178;-66
2020/12/11 15:31:28;;;;;;;10.03;6.67;;;;;;;;;;5034214;28;20232;-66